createdAt,value
2023-05-13T00:00:21.209Z,24.2
2023-05-13T00:02:26.672Z,24.24
2023-05-13T00:04:31.925Z,24.22
2023-05-13T00:06:37.758Z,24.17
2023-05-13T00:08:42.955Z,24.22
2023-05-13T00:10:48.092Z,24.23
2023-05-13T00:12:53.309Z,24.28
2023-05-13T00:14:58.377Z,24.39
2023-05-13T00:17:03.550Z,24.26
2023-05-13T00:19:09.183Z,24.34
2023-05-13T00:21:14.382Z,24.35
2023-05-13T00:23:19.602Z,24.39
2023-05-13T00:25:24.667Z,24.3
2023-05-13T00:27:29.676Z,24.35
2023-05-13T00:29:34.769Z,24.37
2023-05-13T00:31:40.314Z,24.32
2023-05-13T00:33:45.417Z,24.29
2023-05-13T00:35:50.539Z,24.3
2023-05-13T00:37:55.597Z,24.28
2023-05-13T00:40:00.694Z,24.24
2023-05-13T00:42:05.880Z,24.2
2023-05-13T00:44:12.307Z,24.21
2023-05-13T00:46:18.801Z,24.36
2023-05-13T00:48:23.851Z,24.15
2023-05-13T00:50:28.957Z,24.16
2023-05-13T00:52:34.190Z,24.21
2023-05-13T00:54:39.444Z,24.15
2023-05-13T00:56:44.555Z,24.1
2023-05-13T00:58:49.609Z,24.16
2023-05-13T01:00:54.951Z,24.11
2023-05-13T01:03:00.498Z,24.18
2023-05-13T01:05:05.719Z,24.11
2023-05-13T01:07:10.895Z,24.07
2023-05-13T01:09:16.120Z,24.14
2023-05-13T01:11:21.212Z,24.16
2023-05-13T01:13:26.250Z,24.04
2023-05-13T01:15:31.437Z,24.04
2023-05-13T01:17:36.655Z,24.14
2023-05-13T01:19:41.790Z,24.12
2023-05-13T01:21:46.879Z,24.23
2023-05-13T01:23:52.177Z,24.28
2023-05-13T01:25:57.614Z,24.25
2023-05-13T01:28:02.765Z,24.22
2023-05-13T01:30:07.853Z,24.32
2023-05-13T01:32:12.883Z,24.22
2023-05-13T01:34:18.196Z,24.63
2023-05-13T01:36:23.414Z,24.36
2023-05-13T01:38:28.481Z,24.19
2023-05-13T01:40:36.496Z,24.19
2023-05-13T01:42:41.676Z,24.09
2023-05-13T01:44:46.745Z,24.12
2023-05-13T01:46:52.393Z,24.21
2023-05-13T01:48:57.534Z,24.25
2023-05-13T01:51:02.620Z,24.22
2023-05-13T01:53:07.948Z,24.25
2023-05-13T01:55:12.999Z,24.31
2023-05-13T01:57:18.108Z,24.22
2023-05-13T01:59:23.208Z,24.14
2023-05-13T02:01:28.389Z,24.25
2023-05-13T02:03:33.797Z,24.22
2023-05-13T02:05:38.938Z,24.22
2023-05-13T02:07:44.135Z,24.32
2023-05-13T02:09:49.209Z,24.65
2023-05-13T02:11:54.398Z,24.34
2023-05-13T02:13:59.459Z,24.54
2023-05-13T02:16:05.007Z,24.61
2023-05-13T02:18:10.404Z,24.58
2023-05-13T02:20:15.556Z,24.61
2023-05-13T02:22:20.757Z,24.71
2023-05-13T02:24:26.060Z,24.63
2023-05-13T02:26:31.155Z,24.77
2023-05-13T02:28:36.258Z,24.59
2023-05-13T02:30:41.316Z,24.71
2023-05-13T02:32:46.702Z,24.85
2023-05-13T02:34:51.973Z,24.64
2023-05-13T02:36:57.151Z,24.53
2023-05-13T02:39:02.218Z,24.7
2023-05-13T02:41:07.297Z,24.84
2023-05-13T02:43:12.385Z,24.84
2023-05-13T02:45:17.430Z,24.53
2023-05-13T02:47:22.620Z,24.81
2023-05-13T02:49:34.750Z,24.61
2023-05-13T02:51:39.848Z,24.64
2023-05-13T02:53:44.917Z,24.6
2023-05-13T02:55:50.083Z,24.59
2023-05-13T02:57:55.243Z,24.65
2023-05-13T03:00:00.434Z,24.68
2023-05-13T03:02:05.596Z,24.56
2023-05-13T03:04:10.731Z,24.62
2023-05-13T03:06:15.845Z,24.63
2023-05-13T03:08:21.073Z,24.89
2023-05-13T03:10:26.240Z,24.81
2023-05-13T03:12:31.278Z,24.78
2023-05-13T03:14:36.322Z,24.78
2023-05-13T03:16:41.661Z,24.78
2023-05-13T03:18:46.947Z,24.75
2023-05-13T03:20:52.171Z,24.75
2023-05-13T03:22:57.279Z,24.87
2023-05-13T03:25:02.505Z,24.87
2023-05-13T03:27:07.706Z,25
2023-05-13T03:29:12.807Z,24.87
2023-05-13T03:31:18.109Z,24.82
2023-05-13T03:33:23.221Z,25.13
2023-05-13T03:35:28.300Z,25.4
2023-05-13T03:37:33.338Z,25.1
2023-05-13T03:39:38.546Z,25.16
2023-05-13T03:41:43.731Z,25.29
2023-05-13T03:43:48.771Z,24.87
2023-05-13T03:45:54.444Z,24.98
2023-05-13T03:47:59.783Z,24.92
2023-05-13T03:50:05.021Z,24.91
2023-05-13T03:52:10.129Z,24.88
2023-05-13T03:54:15.234Z,25.08
2023-05-13T03:56:20.462Z,24.94
2023-05-13T03:58:25.505Z,24.95
2023-05-13T04:00:30.608Z,24.89
2023-05-13T04:02:36.123Z,25.03
2023-05-13T04:04:41.460Z,25.12
2023-05-13T04:06:46.724Z,25.38
2023-05-13T04:08:51.763Z,25.17
2023-05-13T04:10:56.858Z,25.31
2023-05-13T04:13:01.973Z,25.13
2023-05-13T04:15:07.032Z,25.25
2023-05-13T04:17:12.577Z,24.94
2023-05-13T04:19:20.613Z,24.87
2023-05-13T04:21:25.745Z,24.95
2023-05-13T04:23:30.938Z,25.06
2023-05-13T04:25:36.091Z,25.2
2023-05-13T04:27:41.329Z,25.16
2023-05-13T04:29:46.524Z,25.2
2023-05-13T04:31:52.211Z,25.37
2023-05-13T04:33:57.365Z,25.16
2023-05-13T04:36:02.445Z,25.07
2023-05-13T04:38:07.537Z,24.95
2023-05-13T04:40:12.638Z,25.15
2023-05-13T04:42:17.699Z,25.13
2023-05-13T04:44:22.812Z,25.2
2023-05-13T04:46:28.345Z,25.19
2023-05-13T04:48:34.599Z,25.09
2023-05-13T04:50:41.388Z,25.2
2023-05-13T04:52:46.756Z,25.2
2023-05-13T04:54:51.995Z,25.21
2023-05-13T04:56:57.017Z,25.2
2023-05-13T04:59:02.096Z,25.4
2023-05-13T05:01:07.298Z,25.17
2023-05-13T05:03:12.568Z,25.36
2023-05-13T05:05:20.707Z,25.34
2023-05-13T05:07:25.825Z,25.28
2023-05-13T05:09:30.932Z,25.2
2023-05-13T05:11:36.040Z,25.37
2023-05-13T05:13:41.162Z,25.22
2023-05-13T05:15:46.240Z,25.1
2023-05-13T05:17:51.631Z,25.1
2023-05-13T05:19:56.834Z,25.27
2023-05-13T05:22:01.918Z,25.25
2023-05-13T05:24:07.109Z,25.14
2023-05-13T05:26:14.559Z,25.52
2023-05-13T05:28:19.809Z,25.38
2023-05-13T05:30:25.584Z,25.34
2023-05-13T05:32:30.800Z,25.66
2023-05-13T05:34:35.973Z,25.41
2023-05-13T05:36:41.168Z,25.36
2023-05-13T05:38:46.226Z,25.43
2023-05-13T05:40:51.359Z,25.2
2023-05-13T05:42:56.444Z,25.38
2023-05-13T05:45:01.497Z,25.99
2023-05-13T05:47:06.581Z,25.54
2023-05-13T05:49:11.882Z,25.47
2023-05-13T05:51:16.967Z,25.8
2023-05-13T05:53:22.147Z,25.95
2023-05-13T05:55:27.225Z,25.63
2023-05-13T05:57:32.257Z,25.75
2023-05-13T05:59:37.550Z,26.63
2023-05-13T06:01:42.600Z,26.79
2023-05-13T06:03:48.007Z,27.14
2023-05-13T06:05:53.336Z,26.74
2023-05-13T06:07:58.615Z,27.03
2023-05-13T06:10:04.342Z,27.52
2023-05-13T06:12:10.088Z,27.32
2023-05-13T06:14:15.170Z,27.08
2023-05-13T06:16:20.905Z,27.13
2023-05-13T06:18:26.333Z,27.47
2023-05-13T06:20:31.463Z,27.28
2023-05-13T06:22:36.693Z,27.04
2023-05-13T06:24:41.915Z,26.73
2023-05-13T06:26:47.020Z,26.87
2023-05-13T06:28:52.664Z,26.86
2023-05-13T06:30:58.211Z,27.14
2023-05-13T06:33:04.895Z,27.02
2023-05-13T06:35:09.936Z,27.28
2023-05-13T06:37:15.019Z,27.56
2023-05-13T06:39:19.989Z,27.88
2023-05-13T06:41:25.014Z,27.94
2023-05-13T06:43:30.036Z,28
2023-05-13T06:45:35.054Z,28.23
2023-05-13T06:47:40.195Z,28.38
2023-05-13T06:49:45.300Z,28.17
2023-05-13T06:51:50.414Z,28.28
2023-05-13T06:53:55.531Z,28.38
2023-05-13T06:56:00.571Z,28.4
2023-05-13T06:58:05.647Z,28.67
2023-05-13T07:00:10.814Z,28.78
2023-05-13T07:02:16.047Z,28.97
2023-05-13T07:04:21.384Z,29.06
2023-05-13T07:06:26.874Z,29.08
2023-05-13T07:08:31.996Z,29.24
2023-05-13T07:10:37.140Z,29.37
2023-05-13T07:12:42.340Z,29.43
2023-05-13T07:14:47.413Z,29.5
2023-05-13T07:16:52.785Z,29.75
2023-05-13T07:18:58.099Z,29.76
2023-05-13T07:21:03.313Z,29.79
2023-05-13T07:23:08.490Z,29.84
2023-05-13T07:25:13.642Z,29.92
2023-05-13T07:27:18.714Z,30.03
2023-05-13T07:29:25.320Z,30.2
2023-05-13T07:31:31.278Z,30.11
2023-05-13T07:33:36.505Z,30.21
2023-05-13T07:35:41.836Z,30.26
2023-05-13T07:37:47.100Z,30.25
2023-05-13T07:39:52.245Z,30.4
2023-05-13T07:41:57.350Z,30.51
2023-05-13T07:44:02.466Z,30.83
2023-05-13T07:46:07.515Z,30.86
2023-05-13T07:48:12.827Z,30.52
2023-05-13T07:50:17.997Z,30.56
2023-05-13T07:52:23.117Z,30.51
2023-05-13T07:54:28.272Z,30.44
2023-05-13T07:56:33.388Z,30.41
2023-05-13T07:58:38.578Z,30.49
2023-05-13T08:00:43.670Z,30.65
2023-05-13T08:02:48.973Z,30.78
2023-05-13T08:04:54.279Z,30.95
2023-05-13T08:06:59.691Z,30.81
2023-05-13T08:09:04.767Z,30.74
2023-05-13T08:11:09.851Z,30.85
2023-05-13T08:13:15.138Z,30.71
2023-05-13T08:15:20.504Z,30.71
2023-05-13T08:17:26.096Z,30.8
2023-05-13T08:19:31.190Z,30.94
2023-05-13T08:21:37.487Z,30.76
2023-05-13T08:23:47.889Z,30.82
2023-05-13T08:25:53.081Z,30.99
2023-05-13T08:27:58.179Z,30.78
2023-05-13T08:30:03.481Z,30.97
2023-05-13T08:32:08.836Z,30.74
2023-05-13T08:34:13.953Z,30.73
2023-05-13T08:36:19.035Z,30.84
2023-05-13T08:38:24.305Z,30.97
2023-05-13T08:40:29.414Z,30.8
2023-05-13T08:42:34.577Z,30.74
2023-05-13T08:44:39.660Z,30.84
2023-05-13T08:46:44.737Z,31.02
2023-05-13T08:48:49.966Z,30.83
2023-05-13T08:50:55.047Z,30.76
2023-05-13T08:53:00.309Z,30.83
2023-05-13T08:55:05.612Z,30.7
2023-05-13T08:57:10.711Z,30.93
2023-05-13T08:59:15.881Z,30.59
2023-05-13T09:01:21.151Z,30.73
2023-05-13T09:03:26.263Z,30.26
2023-05-13T09:05:32.091Z,30.16
2023-05-13T09:07:37.432Z,30.34
2023-05-13T09:09:42.494Z,30.31
2023-05-13T09:11:47.577Z,30.2
2023-05-13T09:13:52.648Z,29.98
2023-05-13T09:15:58.121Z,29.93
2023-05-13T09:18:03.458Z,29.92
2023-05-13T09:20:08.754Z,29.97
2023-05-13T09:22:13.822Z,29.77
2023-05-13T09:24:18.985Z,29.61
2023-05-13T09:26:24.117Z,29.52
2023-05-13T09:28:29.275Z,29.62
2023-05-13T09:30:34.339Z,29.41
2023-05-13T09:32:39.681Z,29.01
2023-05-13T09:34:44.765Z,29.13
2023-05-13T09:36:52.585Z,29.04
2023-05-13T09:38:57.665Z,29.02
2023-05-13T09:41:02.853Z,29.04
2023-05-13T09:43:07.943Z,29.04
2023-05-13T09:45:13.084Z,29.02
2023-05-13T09:47:18.954Z,28.97
2023-05-13T09:49:24.000Z,29.01
2023-05-13T09:51:29.126Z,29.29
2023-05-13T09:53:34.268Z,28.99
2023-05-13T09:55:39.667Z,28.91
2023-05-13T09:57:44.811Z,29.55
2023-05-13T09:59:49.954Z,29.56
2023-05-13T10:01:55.260Z,29.04
2023-05-13T10:04:00.504Z,28.86
2023-05-13T10:06:06.165Z,28.86
2023-05-13T10:08:11.245Z,28.75
2023-05-13T10:10:16.458Z,28.38
2023-05-13T10:12:21.575Z,28.81
2023-05-13T10:14:26.635Z,28.76
2023-05-13T10:16:55.221Z,28.58
2023-05-13T10:19:44.516Z,28.31
2023-05-13T10:21:49.691Z,27.95
2023-05-13T10:23:54.743Z,27.58
2023-05-13T10:26:00.027Z,27.44
2023-05-13T10:28:05.047Z,27.52
2023-05-13T10:30:10.193Z,27.11
2023-05-13T10:32:15.433Z,27.52
2023-05-13T10:34:20.717Z,27.74
2023-05-13T10:36:26.028Z,27.85
2023-05-13T10:38:31.092Z,28.37
2023-05-13T10:40:37.334Z,27.46
2023-05-13T10:42:42.505Z,27.26
2023-05-13T10:44:47.732Z,27.18
2023-05-13T10:46:53.521Z,27.5
2023-05-13T10:48:58.618Z,28
2023-05-13T10:51:03.657Z,28.31
2023-05-13T10:53:08.754Z,28.29
2023-05-13T10:55:14.226Z,28.27
2023-05-13T10:57:20.766Z,28.13
2023-05-13T10:59:26.258Z,27.49
2023-05-13T11:01:31.525Z,26.36
2023-05-13T11:03:37.290Z,26.71
2023-05-13T11:05:42.600Z,27.23
2023-05-13T11:07:47.736Z,25.96
2023-05-13T11:09:53.038Z,25.74
2023-05-13T11:11:58.104Z,25.64
2023-05-13T11:14:03.189Z,25.22
2023-05-13T11:16:08.405Z,24.7
2023-05-13T11:18:13.686Z,25.4
2023-05-13T11:20:18.866Z,25.65
2023-05-13T11:22:24.087Z,25.76
2023-05-13T11:24:29.280Z,26.05
2023-05-13T11:26:34.385Z,25.81
2023-05-13T11:28:39.507Z,25.32
2023-05-13T11:30:45.060Z,25.42
2023-05-13T11:32:50.293Z,25.6
2023-05-13T11:34:55.437Z,25.42
2023-05-13T11:37:00.563Z,25.03
2023-05-13T11:39:05.741Z,25.15
2023-05-13T11:41:10.820Z,24.93
2023-05-13T11:43:15.980Z,24.94
2023-05-13T11:45:21.533Z,24.95
2023-05-13T11:47:27.147Z,25.11
2023-05-13T11:49:32.301Z,25.34
2023-05-13T11:51:37.569Z,25.27
2023-05-13T11:53:42.884Z,25.2
2023-05-13T11:55:47.967Z,25.04
2023-05-13T11:57:53.194Z,25.11
2023-05-13T11:59:58.308Z,25.35
2023-05-13T12:02:03.781Z,25.04
2023-05-13T12:04:08.901Z,25.08
2023-05-13T12:06:13.974Z,24.97
2023-05-13T12:08:19.265Z,24.87
2023-05-13T12:10:24.619Z,25.01
2023-05-13T12:12:29.829Z,24.98
2023-05-13T12:14:35.010Z,24.43
2023-05-13T12:16:40.311Z,24.38
2023-05-13T12:18:45.603Z,24.46
2023-05-13T12:20:50.896Z,24.37
2023-05-13T12:22:55.998Z,24.2
2023-05-13T12:25:01.174Z,24.27
2023-05-13T12:27:06.832Z,24.07
2023-05-13T12:29:12.783Z,23.89
2023-05-13T12:31:19.218Z,23.86
2023-05-13T12:33:24.464Z,24
2023-05-13T12:35:29.574Z,23.72
2023-05-13T12:37:34.757Z,23.63
2023-05-13T12:39:39.999Z,23.67
2023-05-13T12:41:45.093Z,23.71
2023-05-13T12:43:50.160Z,23.82
2023-05-13T12:45:55.318Z,23.92
2023-05-13T12:48:00.731Z,23.48
2023-05-13T12:50:05.897Z,23.58
2023-05-13T12:52:11.017Z,23.02
2023-05-13T12:54:16.198Z,23.02
2023-05-13T12:56:21.406Z,23.01
2023-05-13T12:58:26.489Z,23.55
2023-05-13T13:00:31.704Z,23.77
2023-05-13T13:02:37.368Z,23.47
2023-05-13T13:04:42.530Z,23.38
2023-05-13T13:06:47.657Z,23.48
2023-05-13T13:08:52.842Z,23.43
2023-05-13T13:10:57.978Z,23.69
2023-05-13T13:13:03.112Z,23.94
2023-05-13T13:15:08.238Z,23.89
2023-05-13T13:17:13.275Z,23.73
2023-05-13T13:19:18.725Z,23.55
2023-05-13T13:21:24.001Z,23.82
2023-05-13T13:23:29.247Z,23.72
2023-05-13T13:25:34.389Z,24.09
2023-05-13T13:27:40.058Z,24.38
2023-05-13T13:29:45.154Z,24.19
2023-05-13T13:31:50.360Z,25.13
2023-05-13T13:33:55.634Z,25.31
2023-05-13T13:36:00.856Z,25.27
2023-05-13T13:38:05.977Z,25.27
2023-05-13T13:40:11.156Z,25.47
2023-05-13T13:42:16.270Z,26
2023-05-13T13:44:21.482Z,25.56
2023-05-13T13:46:26.865Z,25.63
2023-05-13T13:48:32.036Z,25.9
2023-05-13T13:50:37.211Z,25.93
2023-05-13T13:52:42.445Z,25.61
2023-05-13T13:54:47.648Z,25.94
2023-05-13T13:56:52.757Z,25.9
2023-05-13T13:58:57.995Z,25.93
2023-05-13T14:01:04.327Z,25.29
2023-05-13T14:03:09.882Z,25.37
2023-05-13T14:05:15.176Z,25.58
2023-05-13T14:07:20.329Z,25.26
2023-05-13T14:09:25.667Z,25.76
2023-05-13T14:11:30.706Z,25.44
2023-05-13T14:13:35.811Z,25.43
2023-05-13T14:15:40.984Z,25.46
2023-05-13T14:17:46.476Z,25.79
2023-05-13T14:19:51.641Z,25.49
2023-05-13T14:21:56.717Z,25.5
2023-05-13T14:24:01.894Z,25.84
2023-05-13T14:26:06.988Z,25.33
2023-05-13T14:28:12.090Z,25.27
2023-05-13T14:30:17.286Z,25.15
2023-05-13T14:32:22.495Z,25.22
2023-05-13T14:34:27.676Z,25
2023-05-13T14:36:32.928Z,25.11
2023-05-13T14:38:38.001Z,25.62
2023-05-13T14:40:43.177Z,25.57
2023-05-13T14:42:48.260Z,25.6
2023-05-13T14:44:53.489Z,25.55
2023-05-13T14:46:59.006Z,25.82
2023-05-13T14:49:04.163Z,25.49
2023-05-13T14:51:09.329Z,25.35
2023-05-13T14:53:14.424Z,25.27
2023-05-13T14:55:19.553Z,25.5
2023-05-13T14:57:24.653Z,25.12
2023-05-13T14:59:29.758Z,24.76
2023-05-13T15:01:35.395Z,24.79
2023-05-13T15:03:40.724Z,24.02
2023-05-13T15:05:46.769Z,23.77
2023-05-13T15:07:52.005Z,24.19
2023-05-13T15:09:57.191Z,23.89
2023-05-13T15:12:02.435Z,23.75
2023-05-13T15:14:07.505Z,23.54
2023-05-13T15:16:12.685Z,23.57
2023-05-13T15:18:17.866Z,23.67
2023-05-13T15:20:23.592Z,24.12
2023-05-13T15:22:28.994Z,23.81
2023-05-13T15:24:34.125Z,23.68
2023-05-13T15:26:39.171Z,23.58
2023-05-13T15:28:44.494Z,23.77
2023-05-13T15:30:49.779Z,23.91
2023-05-13T15:32:55.261Z,24.18
2023-05-13T15:35:00.381Z,23.59
2023-05-13T15:37:05.458Z,23.77
2023-05-13T15:39:10.684Z,23.55
2023-05-13T15:41:15.750Z,23.62
2023-05-13T15:43:20.904Z,23.68
2023-05-13T15:45:26.089Z,23.7
2023-05-13T15:47:31.761Z,23.46
2023-05-13T15:49:36.981Z,23.25
2023-05-13T15:51:42.167Z,22.99
2023-05-13T15:53:47.278Z,23.4
2023-05-13T15:55:52.623Z,23.71
2023-05-13T15:57:57.709Z,23.41
2023-05-13T16:00:02.847Z,23.57
2023-05-13T16:02:08.153Z,23.41
2023-05-13T16:04:13.604Z,23.62
2023-05-13T16:06:18.725Z,23.47
2023-05-13T16:08:23.824Z,23.34
2023-05-13T16:10:28.809Z,23.1
2023-05-13T16:12:33.814Z,23.15
2023-05-13T16:14:38.938Z,23.12
2023-05-13T16:16:44.308Z,23.17
2023-05-13T16:18:49.546Z,23.03
2023-05-13T16:20:54.712Z,22.91
2023-05-13T16:22:59.784Z,22.76
2023-05-13T16:25:04.960Z,22.91
2023-05-13T16:27:10.479Z,22.94
2023-05-13T16:29:15.567Z,22.9
2023-05-13T16:31:21.022Z,22.97
2023-05-13T16:33:26.168Z,23.5
2023-05-13T16:35:31.230Z,23.45
2023-05-13T16:37:36.562Z,23.59
2023-05-13T16:39:41.637Z,23.74
2023-05-13T16:41:46.885Z,24.01
2023-05-13T16:43:52.184Z,23.66
2023-05-13T16:45:57.300Z,23.45
2023-05-13T16:48:02.884Z,23.47
2023-05-13T16:50:08.012Z,23.56
2023-05-13T16:52:13.227Z,23.5
2023-05-13T16:54:18.483Z,23.44
2023-05-13T16:56:23.494Z,23.49
2023-05-13T16:58:28.517Z,23.48
2023-05-13T17:00:33.626Z,23.47
2023-05-13T17:02:39.048Z,23.5
2023-05-13T17:04:44.516Z,23.71
2023-05-13T17:06:49.728Z,23.76
2023-05-13T17:08:54.909Z,23.68
2023-05-13T17:11:00.200Z,23.63
2023-05-13T17:13:05.560Z,23.62
2023-05-13T17:15:10.754Z,23.91
2023-05-13T17:17:16.024Z,24.03
2023-05-13T17:19:21.450Z,24.38
2023-05-13T17:21:26.623Z,24.72
2023-05-13T17:23:31.797Z,24.93
2023-05-13T17:25:36.904Z,25.16
2023-05-13T17:27:43.115Z,25.24
2023-05-13T17:29:48.328Z,25.13
2023-05-13T17:31:53.444Z,25.22
2023-05-13T17:33:58.622Z,25.02
2023-05-13T17:36:03.734Z,25.11
2023-05-13T17:38:08.754Z,25.12
2023-05-13T17:40:13.823Z,25.32
2023-05-13T17:42:18.890Z,25.39
2023-05-13T17:44:24.121Z,25.53
2023-05-13T17:46:29.253Z,25.37
2023-05-13T17:48:34.781Z,25.39
2023-05-13T17:50:39.952Z,25.46
2023-05-13T17:52:45.056Z,25.49
2023-05-13T17:54:50.144Z,25.74
2023-05-13T17:56:55.532Z,25.78
2023-05-13T17:59:00.610Z,25.66
2023-05-13T18:01:05.793Z,25.69
2023-05-13T18:03:11.218Z,25.74
2023-05-13T18:05:16.599Z,25.82
2023-05-13T18:07:21.899Z,25.86
2023-05-13T18:09:27.008Z,25.79
2023-05-13T18:11:32.220Z,25.84
2023-05-13T18:13:37.432Z,25.77
2023-05-13T18:15:42.543Z,25.74
2023-05-13T18:17:48.140Z,26.08
2023-05-13T18:19:53.414Z,26.11
2023-05-13T18:21:58.500Z,26.01
2023-05-13T18:24:03.687Z,26.09
2023-05-13T18:26:08.832Z,26.29
2023-05-13T18:28:14.269Z,26.49
2023-05-13T18:30:19.329Z,26.52
2023-05-13T18:32:24.736Z,26.51
2023-05-13T18:34:29.869Z,26.59
2023-05-13T18:36:34.987Z,26.62
2023-05-13T18:38:40.219Z,26.7
2023-05-13T18:40:45.324Z,26.86
2023-05-13T18:42:50.405Z,26.87
2023-05-13T18:44:55.496Z,27.16
2023-05-13T18:47:00.669Z,27.05
2023-05-13T18:49:05.906Z,27.19
2023-05-13T18:51:11.017Z,27.14
2023-05-13T18:53:16.133Z,27.04
2023-05-13T18:55:21.409Z,27.2
2023-05-13T18:57:26.498Z,27.38
2023-05-13T18:59:31.647Z,27.3
2023-05-13T19:01:36.953Z,27.11
2023-05-13T19:03:42.619Z,27.24
2023-05-13T19:05:47.886Z,27.24
2023-05-13T19:07:53.084Z,27.29
2023-05-13T19:09:58.245Z,27.11
2023-05-13T19:12:03.455Z,26.98
2023-05-13T19:14:08.609Z,26.92
2023-05-13T19:16:13.777Z,26.87
2023-05-13T19:18:19.153Z,26.84
2023-05-13T19:20:24.945Z,26.87
2023-05-13T19:22:29.991Z,26.86
2023-05-13T19:24:35.035Z,26.92
2023-05-13T19:26:40.087Z,26.87
2023-05-13T19:28:45.133Z,26.9
2023-05-13T19:30:50.462Z,26.79
2023-05-13T19:32:55.775Z,26.72
2023-05-13T19:35:00.977Z,26.85
2023-05-13T19:37:06.216Z,27.03
2023-05-13T19:39:11.317Z,27.17
2023-05-13T19:41:16.401Z,27.44
2023-05-13T19:43:21.669Z,26.92
2023-05-13T19:45:26.767Z,27.54
2023-05-13T19:47:32.245Z,27.25
2023-05-13T19:49:37.441Z,27.31
2023-05-13T19:51:42.682Z,27.64
2023-05-13T19:53:47.821Z,27.37
2023-05-13T19:55:53.014Z,27.14
2023-05-13T19:57:58.099Z,27.42
2023-05-13T20:00:03.291Z,27.31
2023-05-13T20:02:08.820Z,27.07
2023-05-13T20:04:14.392Z,27.44
2023-05-13T20:06:19.544Z,27.58
2023-05-13T20:08:24.748Z,27.47
2023-05-13T20:10:29.877Z,27.49
2023-05-13T20:12:34.906Z,27.48
2023-05-13T20:14:40.143Z,27.46
2023-05-13T20:16:45.431Z,27.5
2023-05-13T20:18:50.745Z,27.49
2023-05-13T20:20:55.958Z,27.54
2023-05-13T20:23:01.042Z,27.43
2023-05-13T20:25:06.314Z,27.44
2023-05-13T20:27:11.456Z,27.44
2023-05-13T20:29:16.576Z,27.45
2023-05-13T20:31:21.716Z,27.58
2023-05-13T20:33:26.838Z,27.63
2023-05-13T20:35:32.572Z,28.07
2023-05-13T20:37:37.625Z,27.89
2023-05-13T20:39:42.713Z,27.41
2023-05-13T20:41:47.862Z,27.95
2023-05-13T20:43:53.005Z,27.94
2023-05-13T20:45:58.323Z,27.97
2023-05-13T20:48:03.620Z,28.14
2023-05-13T20:50:08.686Z,28.17
2023-05-13T20:52:14.103Z,28.23
2023-05-13T20:54:19.149Z,28.53
2023-05-13T20:56:24.183Z,28.53
2023-05-13T20:58:29.258Z,28.5
2023-05-13T21:00:34.370Z,28.47
2023-05-13T21:02:39.692Z,28.4
2023-05-13T21:04:44.788Z,28.37
2023-05-13T21:06:49.875Z,28.4
2023-05-13T21:08:55.353Z,28.37
2023-05-13T21:11:00.442Z,28.4
2023-05-13T21:13:05.547Z,28.38
2023-05-13T21:15:11.950Z,28.35
2023-05-13T21:17:17.587Z,28.41
2023-05-13T21:19:22.673Z,28.38
2023-05-13T21:21:27.858Z,28.47
2023-05-13T21:23:32.992Z,28.47
2023-05-13T21:25:38.187Z,28.51
2023-05-13T21:27:43.367Z,28.51
2023-05-13T21:29:48.511Z,28.47
2023-05-13T21:31:53.586Z,28.71
2023-05-13T21:33:58.660Z,28.92
2023-05-13T21:36:03.842Z,28.57
2023-05-13T21:38:14.944Z,28.72
2023-05-13T21:40:20.056Z,28.68
2023-05-13T21:42:25.130Z,28.64
2023-05-13T21:44:30.298Z,28.74
2023-05-13T21:46:35.509Z,28.63
2023-05-13T21:48:40.872Z,28.67
2023-05-13T21:50:46.105Z,28.74
2023-05-13T21:52:51.168Z,28.92
2023-05-13T21:54:56.252Z,28.77
2023-05-13T21:57:01.385Z,28.67
2023-05-13T21:59:06.458Z,28.73
2023-05-13T22:01:11.859Z,28.9
2023-05-13T22:03:17.237Z,28.92
2023-05-13T22:05:22.414Z,29.16
2023-05-13T22:07:27.576Z,28.47
2023-05-13T22:09:32.625Z,28.35
2023-05-13T22:11:37.722Z,27.64
2023-05-13T22:13:42.749Z,27.56
2023-05-13T22:15:47.925Z,27.23
2023-05-13T22:17:53.634Z,28.09
2023-05-13T22:19:58.729Z,27.31
2023-05-13T22:22:03.948Z,27.27
2023-05-13T22:24:09.121Z,27.16
2023-05-13T22:26:14.383Z,27.16
2023-05-13T22:28:19.452Z,27.13
2023-05-13T22:30:25.261Z,27.07
2023-05-13T22:32:30.720Z,27.31
2023-05-13T22:34:35.891Z,27.8
2023-05-13T22:36:44.355Z,27.43
2023-05-13T22:38:49.406Z,27.99
2023-05-13T22:40:54.469Z,28.03
2023-05-13T22:42:59.597Z,28.01
2023-05-13T22:45:04.698Z,28.02
2023-05-13T22:47:09.920Z,27.91
2023-05-13T22:49:15.121Z,27.92
2023-05-13T22:51:20.269Z,27.87
2023-05-13T22:53:25.539Z,27.78
2023-05-13T22:55:30.612Z,27.77
2023-05-13T22:57:35.741Z,27.76
2023-05-13T22:59:40.909Z,27.7
2023-05-13T23:01:46.177Z,27.77
2023-05-13T23:03:51.408Z,27.74
2023-05-13T23:05:56.533Z,27.73
2023-05-13T23:08:01.601Z,27.7
2023-05-13T23:10:06.716Z,27.69
2023-05-13T23:12:11.783Z,27.68
2023-05-13T23:14:16.931Z,27.62
2023-05-13T23:16:22.388Z,27.65
2023-05-13T23:18:27.560Z,27.7
2023-05-13T23:20:32.614Z,27.63
2023-05-13T23:22:37.750Z,27.66
2023-05-13T23:24:42.919Z,27.63
2023-05-13T23:26:49.765Z,27.64
2023-05-13T23:28:54.869Z,27.62
2023-05-13T23:30:59.924Z,27.67
2023-05-13T23:33:05.097Z,27.59
2023-05-13T23:35:10.199Z,27.55
2023-05-13T23:37:15.335Z,27.54
2023-05-13T23:39:20.549Z,27.54
2023-05-13T23:41:25.577Z,27.5
2023-05-13T23:43:30.658Z,27.61
2023-05-13T23:45:35.897Z,27.6
2023-05-13T23:47:41.283Z,27.62
2023-05-13T23:49:46.445Z,27.53
2023-05-13T23:51:51.597Z,27.54
2023-05-13T23:53:56.745Z,27.56
2023-05-13T23:56:02.038Z,27.57
2023-05-13T23:58:07.236Z,27.54
